Seabourn Quest — C6YZ5 — position and weather

sailwx.info

Track history (hours):
 
Tides and Currents Weather Stations Pressure Air Temp Water Temp Dewpoint Dewpoint Depression Visibility Wind Speed Wind Dir Waves Ship Positions

Seabourn Quest

Last reported at 2014-Jul-30 18:29 UTC. Time now 2014-Jul-30 19:11 UTC.
Position N 59°56' E 030°16'.

Length 198 m; draft 6.7 m.

Type: Passenger vessel. MMSI: 311038900.

Date/timePositionNaut miles runAvg speedWind from/ knotsBaromVisibWave heightAir tempDewpointWater temp
2014-Jul-30 18:29N 59°56' E 030°16'0 0.0
2014-Jul-30 17:33N 59°56' E 030°16'0 0.0
2014-Jul-30 16:32N 59°56' E 030°16'0 0.0
2014-Jul-30 15:32N 59°56' E 030°16'0 0.0
2014-Jul-30 14:33N 59°56' E 030°16'0 0.0
2014-Jul-30 13:33N 59°56' E 030°16'0 0.0
2014-Jul-30 12:33N 59°56' E 030°16'0 0.0
2014-Jul-30 11:33N 59°56' E 030°16'0 0.0
2014-Jul-30 10:31N 59°56' E 030°16'0 0.0
2014-Jul-30 09:33N 59°56' E 030°16'0 0.0
2014-Jul-30 08:30N 59°56' E 030°16'0 0.0
2014-Jul-30 07:32N 59°56' E 030°16'0 0.0
2014-Jul-30 06:29N 59°56' E 030°16'0 0.0
2014-Jul-30 05:31N 59°56' E 030°16'0 0.0
2014-Jul-30 04:28N 59°56' E 030°16'0 0.0
2014-Jul-30 03:33N 59°56' E 030°16'0 0.1
2014-Jul-30 02:33N 59°56' E 030°16'5 4.5
2014-Jul-30 01:32N 59°54' E 030°08'7712.8
2014-Jul-29 19:32N 60°08' E 027°38'1614.6
2014-Jul-29 18:26N 59°60' E 027°10'1214.0
2014-Jul-29 17:34N 59°59' E 026°46'6014.8
2014-Jul-29 13:31N 59°44' E 024°51'1613.2
2014-Jul-29 12:17N 59°28' E 024°46'14 1.4
2014-Jul-29 02:27N 59°30' E 024°19'1314.1
2014-Jul-29 01:30N 59°27' E 023°53'1313.9
2014-Jul-29 00:33N 59°24' E 023°27'1414.0
2014-Jul-28 23:33N 59°22' E 023°00'1514.2
2014-Jul-28 22:29N 59°19' E 022°31'1414.1
2014-Jul-28 21:31N 59°12' E 022°07'16214.5
2014-Jul-28 10:19N 57°06' E 018°55'1214.3
2014-Jul-28 09:30N 56°57' E 018°42'1614.4
2014-Jul-28 08:24N 56°45' E 018°23'1414.7
2014-Jul-28 07:27N 56°37' E 018°03'1314.6
2014-Jul-28 06:32N 56°28' E 017°43'2014.5
2014-Jul-28 05:11N 56°16' E 017°15'914.7
2014-Jul-28 04:33N 56°10' E 017°03'1614.7
2014-Jul-28 03:30N 56°01' E 016°40'3214.5
2014-Jul-28 01:18N 55°46' E 015°50'1114.4
2014-Jul-28 00:33N 55°42' E 015°33'1414.4
2014-Jul-27 23:33N 55°34' E 015°11'1414.5
2014-Jul-27 22:33N 55°27' E 014°49'1514.5
2014-Jul-27 21:33N 55°17' E 014°30'1413.9
2014-Jul-27 20:33N 55°10' E 014°09'1514.8
2014-Jul-27 19:33N 55°11' E 013°44'1515.4
2014-Jul-27 18:33N 55°13' E 013°17'1514.7
2014-Jul-27 17:33N 55°15' E 012°52'1111.3
2014-Jul-27 16:33N 55°24' E 012°39'1110.8
2014-Jul-27 15:33N 55°35' E 012°42'9 9.1
2014-Jul-27 14:34N 55°44' E 012°40'2 1.7
2014-Jul-27 13:31N 55°43' E 012°37'0 0.0
2014-Jul-27 12:33N 55°43' E 012°37'0 0.0
2014-Jul-27 11:33N 55°43' E 012°37'0 0.0
2014-Jul-27 10:32N 55°43' E 012°37'0 0.0
2014-Jul-27 09:31N 55°43' E 012°37'0 0.0
2014-Jul-27 08:33N 55°43' E 012°37'0 0.0
2014-Jul-27 07:33N 55°43' E 012°37'0 0.0
2014-Jul-27 06:32N 55°43' E 012°37'0 0.0
2014-Jul-27 05:32N 55°43' E 012°37'0 0.0
2014-Jul-27 04:34N 55°43' E 012°37'8 7.5
2014-Jul-27 03:33N 55°50' E 012°41'1414.0
2014-Jul-27 02:33N 56°04' E 012°38'1414.2
2014-Jul-27 01:33N 56°12' E 012°17'1413.8
2014-Jul-27 00:34N 56°23' E 012°01'1514.8
2014-Jul-26 23:33N 56°37' E 011°55'1414.3
2014-Jul-26 22:33N 56°51' E 011°48'1514.8
2014-Jul-26 21:34N 57°05' E 011°38'1514.9
2014-Jul-26 20:33N 57°19' E 011°29'1414.4
2014-Jul-26 19:33N 57°31' E 011°16'1514.7
2014-Jul-26 18:34N 57°41' E 010°55'1212.4
2014-Jul-26 17:33N 57°46' E 010°34'1312.9
2014-Jul-26 16:33N 57°46' E 010°09'25 8.3
2014-Jul-26 13:32N 57°45' E 009°22'8 8.3
2014-Jul-26 12:33N 57°44' E 009°07'8 8.4
2014-Jul-26 11:33N 57°43' E 008°51'8 8.4
2014-Jul-26 10:33N 57°43' E 008°36'88 8.0
2014-Jul-25 23:33N 58°01' E 005°53'9 8.6
2014-Jul-25 22:33N 58°06' E 005°41'9 9.2
2014-Jul-25 21:33N 58°12' E 005°27'9 8.8
2014-Jul-25 20:33N 58°19' E 005°17'8 8.0
2014-Jul-25 19:33N 58°27' E 005°15'8 8.5
2014-Jul-25 18:33N 58°35' E 005°18'8 8.3
2014-Jul-25 17:33N 58°43' E 005°22'1110.9
2014-Jul-25 16:34N 58°53' E 005°31'9 8.9
2014-Jul-25 15:34N 59°01' E 005°40'3 3.2
2014-Jul-25 14:33N 58°58' E 005°44'0 0.0
2014-Jul-25 13:33N 58°58' E 005°44'0 0.0
2014-Jul-25 12:33N 58°58' E 005°44'0 0.0
2014-Jul-25 11:33N 58°58' E 005°44'0 0.0
2014-Jul-25 10:33N 58°58' E 005°44'0 0.0
2014-Jul-25 09:33N 58°58' E 005°44'0 0.0
2014-Jul-25 08:33N 58°58' E 005°44'0 0.0
2014-Jul-25 07:33N 58°58' E 005°44'0 0.0
2014-Jul-25 06:33N 58°58' E 005°44'0 0.0
2014-Jul-25 05:33N 58°58' E 005°44'6 5.5
2014-Jul-25 04:33N 59°02' E 005°36'1110.9
2014-Jul-25 03:33N 59°06' E 005°16'8 8.3
2014-Jul-25 02:33N 59°07' E 005°00'8 7.9
2014-Jul-25 01:33N 59°12' E 004°48'8 7.5
2014-Jul-25 00:31N 59°19' E 004°42'10 9.0
2014-Jul-24 23:26N 59°28' E 004°45'58 8.3
2014-Jul-24 16:28N 60°24' E 005°14'2 2.7
2014-Jul-24 15:33N 60°24' E 005°19'0 0.0
2014-Jul-24 14:33N 60°24' E 005°19'0 0.0
2014-Jul-24 13:21N 60°24' E 005°19'0 0.0
2014-Jul-24 12:33N 60°24' E 005°19'0 0.0
2014-Jul-24 11:33N 60°24' E 005°19'0 0.0
2014-Jul-24 10:33N 60°24' E 005°19'0 0.0
2014-Jul-24 09:27N 60°24' E 005°19'0 0.0
2014-Jul-24 08:33N 60°24' E 005°19'0 0.0
2014-Jul-24 07:27N 60°24' E 005°19'0 0.0
2014-Jul-24 06:33N 60°24' E 005°19'1 0.6
2014-Jul-24 05:33N 60°24' E 005°17'397 7.6
2014-Jul-22 01:33N 66°29' E 011°08'1615.8
2014-Jul-22 00:34N 66°42' E 011°30'1615.8
2014-Jul-21 23:34N 66°53' E 011°58'4816.0
2014-Jul-21 20:33N 67°28' E 013°24'516.1
2014-Jul-21 20:15N 67°31' E 013°33'1116.3
2014-Jul-21 19:33N 67°40' E 013°54'1715.7
2014-Jul-21 18:29N 67°52' E 014°25'25314.1
2014-Jul-21 00:30N 70°39' E 023°21'  
Track history (hours):
 
Tides and Currents Weather Stations Pressure Air Temp Water Temp Dewpoint Dewpoint Depression Visibility Wind Speed Wind Dir Waves Ship Positions

Seabourn Quest

Last reported at 2014-Jul-30 18:29 UTC. Time now 2014-Jul-30 19:11 UTC.
Position N 59°56' E 030°16'.

Length 198 m; draft 6.7 m.

Type: Passenger vessel. MMSI: 311038900.

Date/timePositionNaut miles runAvg speedWind from/ knotsBaromVisibWave heightAir tempDewpointWater temp
2014-Jul-30 18:29N 59°56' E 030°16'0 0.0
2014-Jul-30 17:33N 59°56' E 030°16'0 0.0
2014-Jul-30 16:32N 59°56' E 030°16'0 0.0
2014-Jul-30 15:32N 59°56' E 030°16'0 0.0
2014-Jul-30 14:33N 59°56' E 030°16'0 0.0
2014-Jul-30 13:33N 59°56' E 030°16'0 0.0
2014-Jul-30 12:33N 59°56' E 030°16'0 0.0
2014-Jul-30 11:33N 59°56' E 030°16'0 0.0
2014-Jul-30 10:31N 59°56' E 030°16'0 0.0
2014-Jul-30 09:33N 59°56' E 030°16'0 0.0
2014-Jul-30 08:30N 59°56' E 030°16'0 0.0
2014-Jul-30 07:32N 59°56' E 030°16'0 0.0
2014-Jul-30 06:29N 59°56' E 030°16'0 0.0
2014-Jul-30 05:31N 59°56' E 030°16'0 0.0
2014-Jul-30 04:28N 59°56' E 030°16'0 0.0
2014-Jul-30 03:33N 59°56' E 030°16'0 0.1
2014-Jul-30 02:33N 59°56' E 030°16'5 4.5
2014-Jul-30 01:32N 59°54' E 030°08'7712.8
2014-Jul-29 19:32N 60°08' E 027°38'1614.6
2014-Jul-29 18:26N 59°60' E 027°10'1214.0
2014-Jul-29 17:34N 59°59' E 026°46'6014.8
2014-Jul-29 13:31N 59°44' E 024°51'1613.2
2014-Jul-29 12:17N 59°28' E 024°46'14 1.4
2014-Jul-29 02:27N 59°30' E 024°19'1314.1
2014-Jul-29 01:30N 59°27' E 023°53'1313.9
2014-Jul-29 00:33N 59°24' E 023°27'1414.0
2014-Jul-28 23:33N 59°22' E 023°00'1514.2
2014-Jul-28 22:29N 59°19' E 022°31'1414.1
2014-Jul-28 21:31N 59°12' E 022°07'16214.5
2014-Jul-28 10:19N 57°06' E 018°55'1214.3
2014-Jul-28 09:30N 56°57' E 018°42'1614.4
2014-Jul-28 08:24N 56°45' E 018°23'1414.7
2014-Jul-28 07:27N 56°37' E 018°03'1314.6
2014-Jul-28 06:32N 56°28' E 017°43'2014.5
2014-Jul-28 05:11N 56°16' E 017°15'914.7
2014-Jul-28 04:33N 56°10' E 017°03'1614.7
2014-Jul-28 03:30N 56°01' E 016°40'3214.5
2014-Jul-28 01:18N 55°46' E 015°50'1114.4
2014-Jul-28 00:33N 55°42' E 015°33'1414.4
2014-Jul-27 23:33N 55°34' E 015°11'1414.5
2014-Jul-27 22:33N 55°27' E 014°49'1514.5
2014-Jul-27 21:33N 55°17' E 014°30'1413.9
2014-Jul-27 20:33N 55°10' E 014°09'1514.8
2014-Jul-27 19:33N 55°11' E 013°44'1515.4
2014-Jul-27 18:33N 55°13' E 013°17'1514.7
2014-Jul-27 17:33N 55°15' E 012°52'1111.3
2014-Jul-27 16:33N 55°24' E 012°39'1110.8
2014-Jul-27 15:33N 55°35' E 012°42'9 9.1
2014-Jul-27 14:34N 55°44' E 012°40'2 1.7
2014-Jul-27 13:31N 55°43' E 012°37'0 0.0
2014-Jul-27 12:33N 55°43' E 012°37'0 0.0
2014-Jul-27 11:33N 55°43' E 012°37'0 0.0
2014-Jul-27 10:32N 55°43' E 012°37'0 0.0
2014-Jul-27 09:31N 55°43' E 012°37'0 0.0
2014-Jul-27 08:33N 55°43' E 012°37'0 0.0
2014-Jul-27 07:33N 55°43' E 012°37'0 0.0
2014-Jul-27 06:32N 55°43' E 012°37'0 0.0
2014-Jul-27 05:32N 55°43' E 012°37'0 0.0
2014-Jul-27 04:34N 55°43' E 012°37'8 7.5
2014-Jul-27 03:33N 55°50' E 012°41'1414.0
2014-Jul-27 02:33N 56°04' E 012°38'1414.2
2014-Jul-27 01:33N 56°12' E 012°17'1413.8
2014-Jul-27 00:34N 56°23' E 012°01'1514.8
2014-Jul-26 23:33N 56°37' E 011°55'1414.3
2014-Jul-26 22:33N 56°51' E 011°48'1514.8
2014-Jul-26 21:34N 57°05' E 011°38'1514.9
2014-Jul-26 20:33N 57°19' E 011°29'1414.4
2014-Jul-26 19:33N 57°31' E 011°16'1514.7
2014-Jul-26 18:34N 57°41' E 010°55'1212.4
2014-Jul-26 17:33N 57°46' E 010°34'1312.9
2014-Jul-26 16:33N 57°46' E 010°09'25 8.3
2014-Jul-26 13:32N 57°45' E 009°22'8 8.3
2014-Jul-26 12:33N 57°44' E 009°07'8 8.4
2014-Jul-26 11:33N 57°43' E 008°51'8 8.4
2014-Jul-26 10:33N 57°43' E 008°36'88 8.0
2014-Jul-25 23:33N 58°01' E 005°53'9 8.6
2014-Jul-25 22:33N 58°06' E 005°41'9 9.2
2014-Jul-25 21:33N 58°12' E 005°27'9 8.8
2014-Jul-25 20:33N 58°19' E 005°17'8 8.0
2014-Jul-25 19:33N 58°27' E 005°15'8 8.5
2014-Jul-25 18:33N 58°35' E 005°18'8 8.3
2014-Jul-25 17:33N 58°43' E 005°22'1110.9
2014-Jul-25 16:34N 58°53' E 005°31'9 8.9
2014-Jul-25 15:34N 59°01' E 005°40'3 3.2
2014-Jul-25 14:33N 58°58' E 005°44'0 0.0
2014-Jul-25 13:33N 58°58' E 005°44'0 0.0
2014-Jul-25 12:33N 58°58' E 005°44'0 0.0
2014-Jul-25 11:33N 58°58' E 005°44'0 0.0
2014-Jul-25 10:33N 58°58' E 005°44'0 0.0
2014-Jul-25 09:33N 58°58' E 005°44'0 0.0
2014-Jul-25 08:33N 58°58' E 005°44'0 0.0
2014-Jul-25 07:33N 58°58' E 005°44'0 0.0
2014-Jul-25 06:33N 58°58' E 005°44'0 0.0
2014-Jul-25 05:33N 58°58' E 005°44'6 5.5
2014-Jul-25 04:33N 59°02' E 005°36'1110.9
2014-Jul-25 03:33N 59°06' E 005°16'8 8.3
2014-Jul-25 02:33N 59°07' E 005°00'8 7.9
2014-Jul-25 01:33N 59°12' E 004°48'8 7.5
2014-Jul-25 00:31N 59°19' E 004°42'10 9.0
2014-Jul-24 23:26N 59°28' E 004°45'58 8.3
2014-Jul-24 16:28N 60°24' E 005°14'2 2.7
2014-Jul-24 15:33N 60°24' E 005°19'0 0.0
2014-Jul-24 14:33N 60°24' E 005°19'0 0.0
2014-Jul-24 13:21N 60°24' E 005°19'0 0.0
2014-Jul-24 12:33N 60°24' E 005°19'0 0.0
2014-Jul-24 11:33N 60°24' E 005°19'0 0.0
2014-Jul-24 10:33N 60°24' E 005°19'0 0.0
2014-Jul-24 09:27N 60°24' E 005°19'0 0.0
2014-Jul-24 08:33N 60°24' E 005°19'0 0.0
2014-Jul-24 07:27N 60°24' E 005°19'0 0.0
2014-Jul-24 06:33N 60°24' E 005°19'1 0.6
2014-Jul-24 05:33N 60°24' E 005°17'397 7.6
2014-Jul-22 01:33N 66°29' E 011°08'1615.8
2014-Jul-22 00:34N 66°42' E 011°30'1615.8
2014-Jul-21 23:34N 66°53' E 011°58'4816.0
2014-Jul-21 20:33N 67°28' E 013°24'516.1
2014-Jul-21 20:15N 67°31' E 013°33'1116.3
2014-Jul-21 19:33N 67°40' E 013°54'1715.7
2014-Jul-21 18:29N 67°52' E 014°25'25314.1
2014-Jul-21 00:30N 70°39' E 023°21'  

Dump ship's entire track history